createdAt,value
2018-03-24T00:02:10.356Z,74.21
2018-03-24T00:04:40.653Z,73.93
2018-03-24T00:07:15.891Z,73.96
2018-03-24T00:09:44.287Z,74.32
2018-03-24T00:12:12.712Z,74.42
2018-03-24T00:14:42.392Z,74.18
2018-03-24T00:17:12.678Z,74.01
2018-03-24T00:19:47.884Z,74.00
2018-03-24T00:22:16.364Z,73.52
2018-03-24T00:24:45.563Z,73.35
2018-03-24T00:27:15.240Z,73.29
2018-03-24T00:29:44.503Z,73.76
2018-03-24T00:32:15.712Z,74.10
2018-03-24T00:34:45.845Z,74.16
2018-03-24T00:37:15.632Z,73.75
2018-03-24T00:39:46.504Z,73.58
2018-03-24T00:42:16.566Z,73.45
2018-03-24T00:44:47.649Z,73.47
2018-03-24T00:47:17.469Z,73.66
2018-03-24T00:49:47.719Z,73.54
2018-03-24T00:52:18.660Z,73.46
2018-03-24T00:54:48.563Z,73.37
2018-03-24T00:57:19.838Z,73.29
2018-03-24T00:59:50.136Z,73.10
2018-03-24T01:02:20.032Z,72.76
2018-03-24T01:04:50.976Z,72.64
2018-03-24T01:07:20.783Z,72.69
2018-03-24T01:09:52.032Z,72.83
2018-03-24T01:12:34.340Z,72.82
2018-03-24T01:15:03.994Z,72.65
2018-03-24T01:17:37.802Z,72.51
2018-03-24T01:20:06.182Z,72.72
2018-03-24T01:22:34.572Z,72.72
2018-03-24T01:25:02.886Z,72.85
2018-03-24T01:27:32.022Z,72.41
2018-03-24T01:30:00.959Z,71.89
2018-03-24T01:32:29.472Z,71.80
2018-03-24T01:34:57.833Z,72.14
2018-03-24T01:37:26.226Z,72.10
2018-03-24T01:39:55.705Z,71.87
2018-03-24T01:42:30.788Z,71.60
2018-03-24T01:44:59.138Z,71.51
2018-03-24T01:47:27.944Z,71.70
2018-03-24T01:49:57.754Z,72.00
2018-03-24T01:52:27.800Z,72.14
2018-03-24T01:54:58.735Z,72.06
2018-03-24T01:57:28.795Z,71.90
2018-03-24T01:59:59.955Z,71.89
2018-03-24T02:02:29.780Z,71.81
2018-03-24T02:04:59.905Z,71.63
2018-03-24T02:07:30.672Z,71.74
2018-03-24T02:10:00.787Z,71.94
2018-03-24T02:12:31.425Z,71.75
2018-03-24T02:15:01.889Z,71.93
2018-03-24T02:17:31.961Z,72.20
2018-03-24T02:20:03.055Z,71.64
2018-03-24T02:22:32.891Z,71.72
2018-03-24T02:25:14.420Z,71.34
2018-03-24T02:27:42.823Z,71.28
2018-03-24T02:30:11.940Z,71.25
2018-03-24T02:32:40.268Z,71.39
2018-03-24T02:35:09.032Z,71.21
2018-03-24T02:37:37.771Z,71.28
2018-03-24T02:40:06.139Z,71.20
2018-03-24T02:42:35.928Z,71.41
2018-03-24T02:45:07.067Z,71.25
2018-03-24T02:47:36.628Z,71.30
2018-03-24T02:50:07.700Z,71.67
2018-03-24T02:52:37.906Z,71.60
2018-03-24T02:55:07.752Z,71.53
2018-03-24T02:57:38.164Z,71.10
2018-03-24T03:00:08.766Z,70.96
2018-03-24T03:02:39.788Z,71.11
2018-03-24T03:05:09.432Z,71.32
2018-03-24T03:07:39.964Z,71.06
2018-03-24T03:10:10.479Z,71.19
2018-03-24T03:12:40.378Z,72.28
2018-03-24T03:15:11.609Z,71.95
2018-03-24T03:17:41.815Z,71.92
2018-03-24T03:20:11.803Z,71.95
2018-03-24T03:22:43.025Z,72.32
2018-03-24T03:25:12.783Z,72.43
2018-03-24T03:27:43.940Z,71.96
2018-03-24T03:30:32.708Z,71.42
2018-03-24T03:33:01.101Z,71.16
2018-03-24T03:35:30.163Z,71.66
2018-03-24T03:37:59.290Z,71.85
2018-03-24T03:40:27.600Z,71.80
2018-03-24T03:42:55.954Z,71.62
2018-03-24T03:45:24.302Z,71.58
2018-03-24T03:47:53.430Z,71.37
2018-03-24T03:50:21.753Z,71.23
2018-03-24T03:52:50.106Z,71.12
2018-03-24T03:55:18.490Z,70.90
2018-03-24T03:57:47.833Z,70.93
2018-03-24T04:00:19.062Z,71.07
2018-03-24T04:02:48.837Z,71.42
2018-03-24T04:05:19.810Z,71.73
2018-03-24T04:07:49.789Z,71.84
2018-03-24T04:10:19.662Z,71.77
2018-03-24T04:12:54.762Z,71.72
2018-03-24T04:15:23.075Z,71.49
2018-03-24T04:17:51.896Z,71.25
2018-03-24T04:20:21.826Z,70.92
2018-03-24T04:22:51.896Z,70.59
2018-03-24T04:25:22.990Z,71.00
2018-03-24T04:27:52.826Z,71.29
2018-03-24T04:30:24.008Z,71.12
2018-03-24T04:32:53.830Z,71.31
2018-03-24T04:35:23.783Z,71.30
2018-03-24T04:37:55.020Z,71.29
2018-03-24T04:40:24.860Z,71.22
2018-03-24T04:42:59.932Z,70.90
2018-03-24T04:45:28.918Z,70.25
2018-03-24T04:47:57.473Z,70.14
2018-03-24T04:50:26.816Z,69.74
2018-03-24T04:52:56.445Z,69.79
2018-03-24T04:55:32.464Z,69.72
2018-03-24T04:58:01.217Z,69.53
2018-03-24T05:00:30.121Z,69.63
2018-03-24T05:02:59.009Z,69.50
2018-03-24T05:05:29.014Z,69.29
2018-03-24T05:07:59.630Z,69.81
2018-03-24T05:10:29.706Z,70.04
2018-03-24T05:12:59.498Z,70.46
2018-03-24T05:15:31.987Z,71.29
2018-03-24T05:18:00.762Z,71.54
2018-03-24T05:20:32.190Z,72.10
2018-03-24T05:23:04.017Z,72.37
2018-03-24T05:25:33.609Z,72.59
2018-03-24T05:28:03.582Z,72.50
2018-03-24T05:30:32.612Z,72.54
2018-03-24T05:33:03.863Z,72.34
2018-03-24T05:35:33.772Z,72.76
2018-03-24T05:38:04.095Z,72.87
2018-03-24T05:40:34.913Z,72.76
2018-03-24T05:43:04.945Z,72.58
2018-03-24T05:45:35.767Z,72.84
2018-03-24T05:48:05.711Z,72.81
2018-03-24T05:50:36.049Z,72.28
2018-03-24T05:53:06.693Z,71.75
2018-03-24T05:55:36.017Z,71.19
2018-03-24T05:58:13.843Z,70.20
2018-03-24T06:00:43.013Z,70.26
2018-03-24T06:03:12.537Z,69.82
2018-03-24T06:05:40.883Z,69.16
2018-03-24T06:08:12.111Z,68.82
2018-03-24T06:10:41.235Z,69.27
2018-03-24T06:13:10.247Z,68.78
2018-03-24T06:15:40.088Z,69.23
2018-03-24T06:18:12.840Z,68.64
2018-03-24T06:20:41.653Z,68.66
2018-03-24T06:23:12.452Z,68.31
2018-03-24T06:25:42.036Z,67.50
2018-03-24T06:28:12.004Z,67.90
2018-03-24T06:30:50.997Z,68.07
2018-03-24T06:33:20.471Z,68.75
2018-03-24T06:35:49.637Z,68.41
2018-03-24T06:38:18.328Z,68.51
2018-03-24T06:40:46.863Z,68.07
2018-03-24T06:43:17.481Z,67.12
2018-03-24T06:45:45.859Z,65.92
2018-03-24T06:48:14.340Z,67.05
2018-03-24T06:50:43.536Z,67.03
2018-03-24T06:53:13.848Z,65.50
2018-03-24T06:55:44.916Z,63.95
2018-03-24T06:58:15.024Z,64.18
2018-03-24T07:00:48.470Z,63.69
2018-03-24T07:03:18.129Z,62.45
2018-03-24T07:05:48.111Z,61.41
2018-03-24T07:08:18.891Z,62.11
2018-03-24T07:10:48.744Z,62.15
2018-03-24T07:13:35.181Z,61.79
2018-03-24T07:16:03.637Z,60.86
2018-03-24T07:18:32.158Z,60.60
2018-03-24T07:21:00.645Z,61.39
2018-03-24T07:23:32.084Z,59.76
2018-03-24T07:26:01.309Z,58.96
2018-03-24T07:28:30.087Z,58.63
2018-03-24T07:30:59.240Z,60.90
2018-03-24T07:33:27.543Z,63.04
2018-03-24T07:35:56.672Z,64.08
2018-03-24T07:38:25.033Z,63.71
2018-03-24T07:40:55.226Z,62.66
2018-03-24T07:43:24.356Z,61.33
2018-03-24T07:45:54.826Z,60.83
2018-03-24T07:48:24.486Z,59.24
2018-03-24T07:50:54.777Z,57.72
2018-03-24T07:53:25.128Z,59.21
2018-03-24T07:55:55.023Z,58.14
2018-03-24T07:58:29.620Z,58.68
2018-03-24T08:00:58.072Z,58.51
2018-03-24T08:03:27.964Z,58.24
2018-03-24T08:05:57.303Z,57.24
2018-03-24T08:08:27.416Z,56.23
2018-03-24T08:10:58.286Z,56.44
2018-03-24T08:13:39.674Z,57.82
2018-03-24T08:16:08.176Z,55.94
2018-03-24T08:18:36.536Z,55.90
2018-03-24T08:21:05.916Z,55.40
2018-03-24T08:23:35.238Z,53.15
2018-03-24T08:26:06.494Z,53.25
2018-03-24T08:28:35.720Z,51.86
2018-03-24T08:31:04.094Z,54.30
2018-03-24T08:33:32.831Z,54.31
2018-03-24T08:36:02.965Z,52.86
2018-03-24T08:38:32.706Z,53.76
2018-03-24T08:41:03.808Z,55.62
2018-03-24T08:43:33.848Z,55.64
2018-03-24T08:46:03.864Z,53.29
2018-03-24T08:48:34.813Z,52.57
2018-03-24T08:51:04.832Z,52.06
2018-03-24T08:53:39.837Z,54.67
2018-03-24T08:56:08.189Z,53.86
2018-03-24T08:58:36.590Z,52.69
2018-03-24T09:01:06.998Z,52.13
2018-03-24T09:03:36.418Z,52.86
2018-03-24T09:06:07.882Z,52.17
2018-03-24T09:08:37.878Z,53.06
2018-03-24T09:11:07.874Z,52.45
2018-03-24T09:13:38.884Z,52.30
2018-03-24T09:16:08.504Z,51.03
2018-03-24T09:18:39.635Z,49.22
2018-03-24T09:21:09.961Z,50.49
2018-03-24T09:23:39.744Z,51.26
2018-03-24T09:26:10.956Z,51.43
2018-03-24T09:28:40.539Z,49.38
2018-03-24T09:31:11.840Z,50.26
2018-03-24T09:33:41.807Z,50.80
2018-03-24T09:36:11.886Z,49.00
2018-03-24T09:38:42.443Z,48.92
2018-03-24T09:41:13.079Z,45.83
2018-03-24T09:43:43.843Z,44.98
2018-03-24T09:46:14.704Z,45.41
2018-03-24T09:48:44.076Z,47.68
2018-03-24T09:51:13.627Z,47.65
2018-03-24T09:53:44.479Z,47.77
2018-03-24T09:56:15.668Z,47.87
2018-03-24T09:58:45.524Z,50.12
2018-03-24T10:01:15.855Z,49.40
2018-03-24T10:03:46.810Z,49.93
2018-03-24T10:06:16.970Z,47.91
2018-03-24T10:08:47.775Z,46.38
2018-03-24T10:11:17.986Z,46.52
2018-03-24T10:13:47.790Z,46.50
2018-03-24T10:16:18.875Z,45.50
2018-03-24T10:18:48.888Z,47.12
2018-03-24T10:24:30.133Z,46.41
2018-03-24T10:26:58.927Z,46.93
2018-03-24T10:29:28.231Z,49.29
2018-03-24T10:31:58.126Z,48.11
2018-03-24T10:34:28.205Z,47.43
2018-03-24T10:36:57.451Z,47.74
2018-03-24T10:39:28.202Z,45.66
2018-03-24T10:41:57.929Z,43.81
2018-03-24T10:44:26.481Z,44.16
2018-03-24T10:46:55.667Z,45.11
2018-03-24T10:49:30.459Z,43.78
2018-03-24T10:52:00.691Z,43.09
2018-03-24T10:54:35.898Z,45.24
2018-03-24T10:57:08.134Z,46.12
2018-03-24T10:59:38.711Z,43.73
2018-03-24T11:02:09.487Z,44.31
2018-03-24T11:04:39.117Z,42.92
2018-03-24T11:07:12.440Z,43.71
2018-03-24T11:09:44.973Z,46.59
2018-03-24T11:12:18.810Z,44.36
2018-03-24T11:14:54.753Z,43.76
2018-03-24T11:17:28.525Z,44.17
2018-03-24T11:19:59.442Z,43.47
2018-03-24T11:22:29.739Z,41.78
2018-03-24T11:25:05.207Z,41.55
2018-03-24T11:27:43.591Z,44.04
2018-03-24T11:30:13.048Z,42.83
2018-03-24T11:32:44.066Z,40.55
2018-03-24T11:35:18.610Z,40.34
2018-03-24T11:44:08.910Z,37.45
2018-03-24T11:46:46.644Z,37.19
2018-03-24T11:49:22.189Z,36.81
2018-03-24T11:52:03.645Z,36.63
2018-03-24T11:57:42.395Z,36.48
2018-03-24T12:00:11.123Z,36.40
2018-03-24T12:02:39.578Z,38.50
2018-03-24T12:05:09.379Z,37.47
2018-03-24T12:07:39.346Z,38.89
2018-03-24T12:10:09.934Z,39.60
2018-03-24T12:12:38.382Z,37.92
2018-03-24T12:15:07.812Z,37.47
2018-03-24T12:17:36.944Z,37.93
2018-03-24T12:20:07.493Z,37.22
2018-03-24T12:22:37.813Z,37.42
2018-03-24T12:25:08.349Z,37.62
2018-03-24T12:27:39.391Z,37.78
2018-03-24T12:30:09.520Z,36.93
2018-03-24T12:32:41.280Z,37.20
2018-03-24T12:35:11.136Z,38.84
2018-03-24T12:37:40.908Z,37.70
2018-03-24T12:40:13.462Z,38.01
2018-03-24T12:42:43.165Z,37.31
2018-03-24T12:45:12.637Z,36.80
2018-03-24T12:47:45.333Z,39.17
2018-03-24T12:50:13.985Z,40.79
2018-03-24T12:52:43.208Z,40.56
2018-03-24T12:55:12.926Z,39.89
2018-03-24T12:57:47.065Z,39.22
2018-03-24T13:00:15.430Z,37.94
2018-03-24T13:02:44.869Z,37.36
2018-03-24T13:05:15.560Z,38.13
2018-03-24T13:07:45.671Z,37.10
2018-03-24T13:10:15.351Z,37.51
2018-03-24T13:12:45.554Z,37.43
2018-03-24T13:15:16.426Z,38.04
2018-03-24T13:17:48.054Z,38.74
2018-03-24T13:20:18.963Z,38.60
2018-03-24T13:22:56.569Z,38.18
2018-03-24T13:25:25.548Z,37.51
2018-03-24T13:28:05.653Z,37.44
2018-03-24T13:30:38.829Z,36.80
2018-03-24T13:33:09.826Z,36.46
2018-03-24T13:35:38.557Z,36.35
2018-03-24T13:38:07.423Z,36.70
2018-03-24T13:40:37.088Z,36.11
2018-03-24T13:43:16.221Z,36.49
2018-03-24T13:45:52.368Z,36.58
2018-03-24T13:48:25.304Z,37.88
2018-03-24T13:50:58.562Z,38.20
2018-03-24T13:53:36.924Z,38.71
2018-03-24T13:56:19.620Z,37.83
2018-03-24T13:58:53.957Z,37.48
2018-03-24T14:02:18.061Z,36.61
2018-03-24T14:04:46.941Z,36.14
2018-03-24T14:07:16.088Z,37.06
2018-03-24T14:09:45.645Z,36.45
2018-03-24T14:12:14.156Z,36.33
2018-03-24T14:14:44.237Z,36.63
2018-03-24T14:17:13.560Z,36.51
2018-03-24T14:19:41.937Z,36.66
2018-03-24T14:22:19.166Z,36.58
2018-03-24T14:24:47.613Z,37.70
2018-03-24T14:27:22.311Z,37.77
2018-03-24T14:29:50.833Z,37.54
2018-03-24T14:32:19.309Z,38.40
2018-03-24T14:34:47.800Z,38.61
2018-03-24T14:37:17.236Z,38.67
2018-03-24T14:39:45.639Z,38.77
2018-03-24T14:42:14.785Z,38.49
2018-03-24T14:44:43.139Z,38.07
2018-03-24T14:47:11.475Z,37.79
2018-03-24T14:49:39.871Z,37.98
2018-03-24T14:52:09.376Z,38.24
2018-03-24T14:54:38.135Z,38.27
2018-03-24T14:57:06.607Z,38.23
2018-03-24T14:59:35.150Z,37.99
2018-03-24T15:02:03.534Z,38.47
2018-03-24T15:04:32.773Z,38.82
2018-03-24T15:07:01.760Z,39.48
2018-03-24T15:09:30.593Z,39.47
2018-03-24T15:11:59.026Z,39.02
2018-03-24T15:14:27.569Z,38.63
2018-03-24T15:16:55.986Z,39.96
2018-03-24T15:19:24.373Z,39.80
2018-03-24T15:21:52.761Z,39.81
2018-03-24T15:24:21.098Z,40.22
2018-03-24T15:26:49.505Z,40.31
2018-03-24T15:29:36.096Z,40.25
2018-03-24T15:32:22.047Z,40.61
2018-03-24T15:35:08.330Z,40.45
2018-03-24T15:37:37.943Z,40.67
2018-03-24T15:40:08.521Z,42.10
2018-03-24T15:42:37.821Z,41.70
2018-03-24T15:45:10.577Z,42.28
2018-03-24T15:47:39.366Z,42.15
2018-03-24T15:50:08.689Z,42.11
2018-03-24T15:52:38.959Z,42.04
2018-03-24T15:55:10.466Z,42.28
2018-03-24T15:57:38.977Z,42.10
2018-03-24T16:00:09.427Z,42.18
2018-03-24T16:02:39.690Z,42.35
2018-03-24T16:05:08.383Z,42.50
2018-03-24T16:07:37.388Z,42.47
2018-03-24T16:10:07.063Z,42.55
2018-03-24T16:12:35.508Z,42.49
2018-03-24T16:15:03.974Z,43.09
2018-03-24T16:17:32.469Z,42.83
2018-03-24T16:20:01.276Z,42.99
2018-03-24T16:22:30.664Z,42.87
2018-03-24T16:25:00.194Z,45.40
2018-03-24T16:27:28.618Z,44.80
2018-03-24T16:29:57.788Z,43.16
2018-03-24T16:32:27.096Z,43.78
2018-03-24T16:34:55.476Z,43.41
2018-03-24T16:37:23.875Z,43.60
2018-03-24T16:39:53.833Z,44.01
2018-03-24T16:42:22.262Z,44.20
2018-03-24T16:44:51.510Z,44.33
2018-03-24T16:47:20.184Z,44.54
2018-03-24T16:49:49.951Z,44.85
2018-03-24T16:52:20.707Z,44.90
2018-03-24T16:54:51.116Z,45.14
2018-03-24T16:57:22.758Z,45.18
2018-03-24T16:59:51.427Z,45.26
2018-03-24T17:02:22.468Z,45.47
2018-03-24T17:04:51.642Z,45.32
2018-03-24T17:07:21.532Z,45.24
2018-03-24T17:09:53.255Z,45.52
2018-03-24T17:12:22.788Z,45.69
2018-03-24T17:14:53.910Z,46.03
2018-03-24T17:17:24.462Z,46.29
2018-03-24T17:19:54.216Z,46.60
2018-03-24T17:22:26.800Z,46.94
2018-03-24T17:24:55.557Z,47.23
2018-03-24T17:27:30.290Z,47.67
2018-03-24T17:30:11.330Z,47.66
2018-03-24T17:32:44.820Z,48.22
2018-03-24T17:35:13.260Z,48.47
2018-03-24T17:37:41.639Z,48.87
2018-03-24T17:40:10.056Z,49.13
2018-03-24T17:42:38.414Z,49.12
2018-03-24T17:45:06.997Z,49.42
2018-03-24T17:47:35.399Z,49.80
2018-03-24T17:50:04.926Z,50.25
2018-03-24T17:52:33.318Z,50.45
2018-03-24T17:55:01.874Z,50.73
2018-03-24T17:57:34.348Z,50.97
2018-03-24T18:00:03.528Z,51.35
2018-03-24T18:02:32.395Z,51.66
2018-03-24T18:05:03.309Z,52.00
2018-03-24T18:07:32.959Z,52.15
2018-03-24T18:10:03.388Z,52.54
2018-03-24T18:12:33.378Z,53.11
2018-03-24T18:15:03.340Z,53.34
2018-03-24T18:17:34.700Z,53.58
2018-03-24T18:20:05.140Z,54.14
2018-03-24T18:22:34.680Z,54.83
2018-03-24T18:25:06.354Z,54.49
2018-03-24T18:27:35.842Z,54.76
2018-03-24T18:30:06.248Z,55.65
2018-03-24T18:32:39.481Z,55.39
2018-03-24T18:35:18.351Z,55.60
2018-03-24T18:37:46.861Z,55.55
2018-03-24T18:40:17.216Z,55.58
2018-03-24T18:42:46.160Z,55.98
2018-03-24T18:45:17.209Z,56.14
2018-03-24T18:47:46.421Z,56.10
2018-03-24T18:50:14.929Z,56.34
2018-03-24T18:52:45.107Z,56.98
2018-03-24T18:57:55.260Z,57.59
2018-03-24T19:00:25.581Z,57.99
2018-03-24T19:02:53.995Z,58.39
2018-03-24T19:05:24.285Z,58.09
2018-03-24T19:07:52.795Z,58.28
2018-03-24T19:10:24.137Z,58.98
2018-03-24T19:12:57.207Z,59.38
2018-03-24T19:15:29.747Z,58.67
2018-03-24T19:17:58.619Z,58.42
2018-03-24T19:20:27.189Z,58.48
2018-03-24T19:22:56.439Z,58.70
2018-03-24T19:25:25.245Z,58.77
2018-03-24T19:27:53.672Z,58.60
2018-03-24T19:30:24.748Z,58.98
2018-03-24T19:32:53.294Z,59.56
2018-03-24T19:35:21.827Z,59.87
2018-03-24T19:37:51.790Z,59.87
2018-03-24T19:40:22.552Z,59.99
2018-03-24T19:42:51.114Z,60.14
2018-03-24T19:45:20.290Z,60.67
2018-03-24T19:47:48.946Z,60.43
2018-03-24T19:50:19.655Z,60.35
2018-03-24T19:52:50.149Z,60.79
2018-03-24T19:55:20.002Z,60.98
2018-03-24T19:57:51.120Z,60.82
2018-03-24T20:00:20.978Z,61.00
2018-03-24T20:02:51.080Z,61.59
2018-03-24T20:05:22.436Z,61.72
2018-03-24T20:07:52.639Z,61.95
2018-03-24T20:10:23.690Z,61.95
2018-03-24T20:12:54.111Z,61.96
2018-03-24T20:15:23.382Z,61.98
2018-03-24T20:17:53.251Z,62.13
2018-03-24T20:20:23.823Z,62.25
2018-03-24T20:22:54.958Z,62.27
2018-03-24T20:25:25.978Z,62.43
2018-03-24T20:27:55.637Z,62.52
2018-03-24T20:30:25.323Z,62.52
2018-03-24T20:32:56.195Z,62.53
2018-03-24T20:35:26.610Z,62.82
2018-03-24T20:37:57.530Z,62.63
2018-03-24T20:40:27.090Z,62.85
2018-03-24T20:42:59.495Z,63.15
2018-03-24T20:45:28.595Z,63.43
2018-03-24T20:47:58.481Z,63.75
2018-03-24T20:50:29.637Z,63.41
2018-03-24T20:52:59.582Z,63.57
2018-03-24T20:55:30.246Z,63.62
2018-03-24T20:58:00.520Z,63.77
2018-03-24T21:00:30.938Z,64.02
2018-03-24T21:03:00.719Z,63.92
2018-03-24T21:05:32.671Z,64.27
2018-03-24T21:08:01.850Z,64.37
2018-03-24T21:10:32.174Z,64.24
2018-03-24T21:13:03.197Z,64.54
2018-03-24T21:15:33.118Z,65.28
2018-03-24T21:18:03.852Z,65.72
2018-03-24T21:20:34.512Z,65.83
2018-03-24T21:23:04.434Z,65.53
2018-03-24T21:25:36.818Z,65.79
2018-03-24T21:28:06.926Z,66.05
2018-03-24T21:30:35.903Z,65.98
2018-03-24T21:33:06.228Z,66.34
2018-03-24T21:35:36.250Z,66.80
2018-03-24T21:38:07.217Z,67.18
2018-03-24T21:40:37.081Z,67.21
2018-03-24T21:43:07.014Z,67.46
2018-03-24T21:45:39.346Z,67.46
2018-03-24T21:48:08.746Z,67.87
2018-03-24T21:50:39.076Z,67.95
2018-03-24T21:53:09.346Z,67.43
2018-03-24T21:55:39.619Z,67.92
2018-03-24T21:58:09.988Z,68.30
2018-03-24T22:00:40.563Z,68.64
2018-03-24T22:03:11.714Z,68.38
2018-03-24T22:05:41.617Z,67.86
2018-03-24T22:08:11.538Z,67.64
2018-03-24T22:10:42.565Z,67.82
2018-03-24T22:13:11.852Z,67.98
2018-03-24T22:15:43.405Z,68.77
2018-03-24T22:18:12.958Z,68.72
2018-03-24T22:20:43.151Z,68.50
2018-03-24T22:23:14.818Z,68.98
2018-03-24T22:25:44.262Z,69.14
2018-03-24T22:28:15.605Z,69.09
2018-03-24T22:30:45.089Z,69.24
2018-03-24T22:33:15.307Z,68.97
2018-03-24T22:35:46.681Z,69.72
2018-03-24T22:38:16.074Z,69.75
2018-03-24T22:40:47.361Z,69.79
2018-03-24T22:43:17.583Z,69.64
2018-03-24T22:45:47.187Z,69.26
2018-03-24T22:48:17.821Z,69.41
2018-03-24T22:50:48.553Z,69.38
2018-03-24T22:53:18.977Z,69.58
2018-03-24T22:55:49.759Z,70.12
2018-03-24T22:58:19.805Z,69.83
2018-03-24T23:00:50.524Z,69.60
2018-03-24T23:03:20.774Z,69.44
2018-03-24T23:05:51.991Z,69.78
2018-03-24T23:08:21.804Z,69.65
2018-03-24T23:10:50.929Z,70.31
2018-03-24T23:13:22.883Z,70.59
2018-03-24T23:15:52.755Z,70.43
2018-03-24T23:18:23.141Z,69.96
2018-03-24T23:20:53.576Z,70.29
2018-03-24T23:23:23.153Z,70.61
2018-03-24T23:25:54.367Z,70.11
2018-03-24T23:28:24.361Z,70.08
2018-03-24T23:30:55.059Z,70.82
2018-03-24T23:33:25.483Z,70.40
2018-03-24T23:35:55.940Z,70.09
2018-03-24T23:38:27.132Z,70.63
2018-03-24T23:40:56.761Z,70.43
2018-03-24T23:43:27.545Z,70.36
2018-03-24T23:45:57.515Z,70.52
2018-03-24T23:48:27.559Z,70.52
2018-03-24T23:50:58.376Z,70.49
2018-03-24T23:53:28.650Z,70.60
2018-03-24T23:55:59.493Z,70.33
2018-03-24T23:58:29.643Z,70.61
